createdAt,value
2023-05-05T00:00:57.716Z,1.04
2023-05-05T00:01:57.858Z,1.04
2023-05-05T00:02:58.008Z,1.04
2023-05-05T00:03:58.214Z,1.04
2023-05-05T00:04:58.242Z,1.04
2023-05-05T00:05:58.361Z,1.04
2023-05-05T00:06:58.515Z,1.04
2023-05-05T00:07:58.665Z,1.04
2023-05-05T00:08:58.803Z,1.04
2023-05-05T00:09:58.947Z,1.04
2023-05-05T00:10:59.108Z,1.04
2023-05-05T00:11:59.252Z,1.04
2023-05-05T00:12:59.369Z,1.04
2023-05-05T00:13:59.514Z,1.04
2023-05-05T00:14:59.655Z,1.04
2023-05-05T00:15:59.819Z,1.04
2023-05-05T00:17:00.007Z,1.04
2023-05-05T00:18:00.222Z,1.04
2023-05-05T00:19:00.277Z,1.04
2023-05-05T00:20:00.436Z,1.04
2023-05-05T00:21:00.584Z,1.04
2023-05-05T00:22:00.732Z,1.04
2023-05-05T00:23:00.897Z,1.04
2023-05-05T00:24:01.061Z,1.04
2023-05-05T00:25:01.184Z,1.04
2023-05-05T00:26:01.334Z,1.04
2023-05-05T00:27:01.469Z,1.04
2023-05-05T00:28:01.627Z,1.04
2023-05-05T00:29:01.791Z,1.04
2023-05-05T00:30:01.934Z,1.04
2023-05-05T00:31:02.211Z,1.04
2023-05-05T00:32:02.244Z,1.04
2023-05-05T00:33:02.476Z,1.04
2023-05-05T00:34:02.558Z,1.04
2023-05-05T00:35:02.702Z,1.04
2023-05-05T00:36:02.862Z,1.04
2023-05-05T00:37:02.994Z,1.04
2023-05-05T00:38:03.157Z,1.04
2023-05-05T00:39:03.320Z,1.04
2023-05-05T00:40:03.455Z,1.04
2023-05-05T00:41:03.562Z,1.04
2023-05-05T00:42:03.660Z,1.04
2023-05-05T00:43:03.811Z,1.04
2023-05-05T00:44:03.957Z,1.04
2023-05-05T00:45:04.122Z,1.04
2023-05-05T00:46:04.294Z,1.04
2023-05-05T00:47:04.422Z,1.04
2023-05-05T00:48:04.576Z,1.04
2023-05-05T00:49:04.695Z,1.04
2023-05-05T00:50:04.877Z,1.04
2023-05-05T00:51:04.979Z,1.04
2023-05-05T00:52:05.139Z,1.04
2023-05-05T00:53:05.272Z,1.04
2023-05-05T00:54:05.430Z,1.04
2023-05-05T00:55:05.588Z,1.04
2023-05-05T00:56:05.733Z,1.04
2023-05-05T00:57:05.883Z,1.04
2023-05-05T00:58:06.030Z,1.04
2023-05-05T00:59:06.207Z,1.04
2023-05-05T01:00:06.620Z,1.04
2023-05-05T01:01:06.448Z,1.04
2023-05-05T01:02:06.532Z,1.04
2023-05-05T01:03:06.760Z,1.04
2023-05-05T01:04:06.875Z,1.04
2023-05-05T01:05:06.893Z,1.04
2023-05-05T01:06:07.048Z,1.04
2023-05-05T01:07:07.117Z,1.04
2023-05-05T01:08:07.260Z,1.04
2023-05-05T01:09:07.409Z,1.04
2023-05-05T01:10:15.552Z,1.04
2023-05-05T01:11:07.706Z,1.04
2023-05-05T01:12:07.818Z,1.04
2023-05-05T01:13:08.033Z,1.04
2023-05-05T01:14:08.124Z,1.04
2023-05-05T01:15:08.264Z,1.04
2023-05-05T01:16:08.486Z,1.04
2023-05-05T01:17:08.530Z,1.04
2023-05-05T01:18:08.657Z,1.04
2023-05-05T01:19:08.978Z,1.04
2023-05-05T01:20:09.165Z,1.04
2023-05-05T01:21:09.139Z,1.04
2023-05-05T01:22:09.278Z,1.04
2023-05-05T01:23:09.445Z,1.04
2023-05-05T01:24:09.583Z,1.04
2023-05-05T01:25:09.734Z,1.04
2023-05-05T01:26:09.898Z,1.04
2023-05-05T01:27:10.044Z,1.04
2023-05-05T01:28:10.200Z,1.04
2023-05-05T01:29:10.337Z,1.04
2023-05-05T01:30:10.517Z,1.04
2023-05-05T01:31:10.663Z,1.04
2023-05-05T01:32:10.754Z,1.04
2023-05-05T01:33:10.821Z,1.04
2023-05-05T01:34:10.935Z,1.04
2023-05-05T01:35:11.078Z,1.04
2023-05-05T01:36:11.231Z,1.04
2023-05-05T01:37:11.327Z,1.04
2023-05-05T01:38:11.540Z,1.04
2023-05-05T01:39:11.668Z,1.04
2023-05-05T01:40:11.812Z,1.04
2023-05-05T01:41:11.943Z,1.04
2023-05-05T01:42:12.048Z,1.04
2023-05-05T01:43:12.210Z,1.04
2023-05-05T01:44:12.315Z,1.04
2023-05-05T01:45:12.454Z,1.04
2023-05-05T01:46:12.692Z,1.04
2023-05-05T01:47:12.753Z,1.04
2023-05-05T01:48:12.914Z,1.04
2023-05-05T01:49:13.039Z,1.04
2023-05-05T01:50:13.175Z,1.04
2023-05-05T01:51:13.317Z,1.04
2023-05-05T01:52:13.477Z,1.04
2023-05-05T01:53:13.623Z,1.04
2023-05-05T01:54:13.728Z,1.04
2023-05-05T01:55:13.896Z,1.04
2023-05-05T01:56:14.042Z,1.04
2023-05-05T01:57:14.173Z,1.04
2023-05-05T01:58:14.348Z,1.04
2023-05-05T01:59:14.491Z,1.04
2023-05-05T02:00:14.636Z,1.04
2023-05-05T02:01:14.829Z,1.04
2023-05-05T02:02:14.933Z,1.04
2023-05-05T02:03:15.065Z,1.04
2023-05-05T02:04:15.142Z,1.04
2023-05-05T02:05:15.254Z,1.04
2023-05-05T02:06:15.450Z,1.04
2023-05-05T02:07:15.555Z,1.04
2023-05-05T02:08:15.698Z,1.04
2023-05-05T02:09:15.847Z,1.04
2023-05-05T02:10:16.000Z,1.04
2023-05-05T02:11:16.166Z,1.04
2023-05-05T02:12:16.331Z,1.04
2023-05-05T02:13:16.539Z,1.04
2023-05-05T02:14:16.563Z,1.04
2023-05-05T02:15:16.727Z,1.04
2023-05-05T02:16:16.988Z,1.04
2023-05-05T02:17:17.038Z,1.04
2023-05-05T02:18:17.190Z,1.04
2023-05-05T02:19:17.325Z,1.04
2023-05-05T02:20:17.475Z,1.04
2023-05-05T02:21:17.630Z,1.04
2023-05-05T02:22:17.785Z,1.04
2023-05-05T02:23:17.914Z,1.04
2023-05-05T02:24:18.075Z,1.04
2023-05-05T02:25:18.251Z,1.04
2023-05-05T02:26:18.419Z,1.04
2023-05-05T02:27:18.545Z,1.04
2023-05-05T02:28:18.686Z,1.04
2023-05-05T02:29:18.842Z,1.04
2023-05-05T02:30:19.017Z,1.04
2023-05-05T02:31:19.181Z,1.04
2023-05-05T02:32:19.256Z,1.04
2023-05-05T02:33:19.399Z,1.04
2023-05-05T02:34:19.545Z,1.04
2023-05-05T02:35:19.692Z,1.04
2023-05-05T02:36:20.004Z,1.04
2023-05-05T02:38:20.155Z,1.04
2023-05-05T02:39:20.318Z,1.04
2023-05-05T02:40:20.455Z,1.04
2023-05-05T02:41:20.573Z,1.04
2023-05-05T02:42:20.715Z,1.04
2023-05-05T02:43:20.922Z,1.04
2023-05-05T02:44:21.028Z,1.04
2023-05-05T02:45:21.164Z,1.04
2023-05-05T02:46:21.284Z,1.04
2023-05-05T02:47:21.445Z,1.04
2023-05-05T02:48:21.572Z,1.04
2023-05-05T02:49:21.722Z,1.04
2023-05-05T02:50:21.874Z,1.04
2023-05-05T02:51:22.012Z,1.04
2023-05-05T02:52:22.169Z,1.04
2023-05-05T02:53:22.341Z,1.04
2023-05-05T02:54:22.453Z,1.04
2023-05-05T02:55:22.578Z,2
2023-05-05T02:56:22.736Z,2
2023-05-05T02:57:22.879Z,2
2023-05-05T02:58:23.036Z,2
2023-05-05T02:59:23.210Z,2
2023-05-05T03:00:23.295Z,3.04
2023-05-05T03:01:23.445Z,3.04
2023-05-05T03:02:23.582Z,3.04
2023-05-05T03:03:23.722Z,4
2023-05-05T03:04:23.755Z,5.04
2023-05-05T03:05:23.900Z,5.04
2023-05-05T03:06:24.055Z,6
2023-05-05T03:07:24.211Z,7.04
2023-05-05T03:08:24.366Z,8
2023-05-05T03:09:24.514Z,9.04
2023-05-05T03:10:24.672Z,10
2023-05-05T03:11:24.752Z,12
2023-05-05T03:12:24.911Z,14
2023-05-05T03:13:25.063Z,16
2023-05-05T03:14:25.225Z,18
2023-05-05T03:15:25.372Z,22
2023-05-05T03:16:25.603Z,25.04
2023-05-05T03:17:25.690Z,29.04
2023-05-05T03:18:25.770Z,33.04
2023-05-05T03:19:25.895Z,38
2023-05-05T03:20:26.033Z,44
2023-05-05T03:21:26.138Z,50
2023-05-05T03:22:26.270Z,56
2023-05-05T03:23:26.427Z,65.04
2023-05-05T03:24:26.568Z,72
2023-05-05T03:25:26.728Z,82
2023-05-05T03:26:26.820Z,91.04
2023-05-05T03:27:26.993Z,103.04
2023-05-05T03:28:27.086Z,116
2023-05-05T03:29:27.249Z,128
2023-05-05T03:30:27.382Z,143.04
2023-05-05T03:31:27.565Z,161.04
2023-05-05T03:32:27.687Z,177.12
2023-05-05T03:33:27.757Z,193.12
2023-05-05T03:34:27.907Z,210.08
2023-05-05T03:35:28.098Z,232
2023-05-05T03:36:29.465Z,252
2023-05-05T03:37:28.360Z,275.04
2023-05-05T03:38:28.526Z,295.04
2023-05-05T03:39:28.648Z,315.04
2023-05-05T03:40:36.566Z,333.12
2023-05-05T03:41:28.944Z,360
2023-05-05T03:42:29.107Z,383.04
2023-05-05T03:43:29.259Z,415.04
2023-05-05T03:44:29.422Z,446.08
2023-05-05T03:45:29.595Z,481.28
2023-05-05T03:46:29.722Z,518.08
2023-05-05T03:47:29.827Z,568
2023-05-05T03:48:29.923Z,610.24
2023-05-05T03:49:30.057Z,654.08
2023-05-05T03:50:30.225Z,697.6
2023-05-05T03:51:30.365Z,741.12
2023-05-05T03:52:30.523Z,798.08
2023-05-05T03:53:30.674Z,842.24
2023-05-05T03:54:30.768Z,889.6
2023-05-05T03:55:30.935Z,933.12
2023-05-05T03:56:31.071Z,977.28
2023-05-05T03:57:31.230Z,1036.16
2023-05-05T03:58:31.370Z,1079.04
2023-05-05T03:59:31.494Z,1118.08
2023-05-05T04:00:31.635Z,1172.48
2023-05-05T04:01:31.797Z,1216
2023-05-05T04:02:32.037Z,1269.12
2023-05-05T04:03:32.240Z,1400.32
2023-05-05T04:04:32.253Z,1461.76
2023-05-05T04:05:32.347Z,1542.4
2023-05-05T04:06:32.441Z,1611.52
2023-05-05T04:07:32.599Z,1683.2
2023-05-05T04:08:32.751Z,1765.12
2023-05-05T04:09:32.846Z,1832.96
2023-05-05T04:10:33.003Z,1916.16
2023-05-05T04:11:33.145Z,1967.36
2023-05-05T04:12:33.337Z,2028.8
2023-05-05T04:13:33.487Z,2123.52
2023-05-05T04:14:33.617Z,2250.24
2023-05-05T04:15:33.769Z,2360.32
2023-05-05T04:16:33.860Z,2481.92
2023-05-05T04:17:33.999Z,2501.12
2023-05-05T04:18:34.085Z,2579.2
2023-05-05T04:19:34.239Z,2703.36
2023-05-05T04:20:34.316Z,2749.44
2023-05-05T04:21:34.485Z,2877.44
2023-05-05T04:22:34.657Z,3059.2
2023-05-05T04:23:34.771Z,3220.48
2023-05-05T04:24:34.938Z,3409.92
2023-05-05T04:25:35.061Z,3640.32
2023-05-05T04:26:35.190Z,3755.52
2023-05-05T04:27:35.361Z,3811.84
2023-05-05T04:28:35.486Z,3932.16
2023-05-05T04:29:35.591Z,4019.2
2023-05-05T04:30:35.743Z,3944.96
2023-05-05T04:31:35.956Z,3855.36
2023-05-05T04:32:36.077Z,3898.88
2023-05-05T04:33:36.194Z,3996.16
2023-05-05T04:34:36.355Z,4129.28
2023-05-05T04:35:36.497Z,4280.32
2023-05-05T04:36:36.653Z,4380.16
2023-05-05T04:37:36.809Z,4416
2023-05-05T04:38:37.003Z,4600.32
2023-05-05T04:39:37.115Z,4807.68
2023-05-05T04:40:37.258Z,5114.88
2023-05-05T04:41:37.416Z,5381.12
2023-05-05T04:42:37.589Z,5580.8
2023-05-05T04:43:37.728Z,5734.4
2023-05-05T04:44:37.881Z,5877.76
2023-05-05T04:45:38.019Z,6000.64
2023-05-05T04:46:38.206Z,5995.52
2023-05-05T04:47:38.223Z,5611.52
2023-05-05T04:48:38.324Z,5217.28
2023-05-05T04:49:38.472Z,5304.32
2023-05-05T04:50:38.619Z,5703.68
2023-05-05T04:51:38.777Z,5852.16
2023-05-05T04:52:38.923Z,5913.6
2023-05-05T04:53:39.044Z,5647.36
2023-05-05T04:54:39.187Z,5959.68
2023-05-05T04:55:39.292Z,5570.56
2023-05-05T04:56:39.433Z,5893.12
2023-05-05T04:57:39.590Z,6092.8
2023-05-05T04:58:39.737Z,5903.36
2023-05-05T04:59:39.890Z,5555.2
2023-05-05T05:00:40.053Z,5980.16
2023-05-05T05:01:40.222Z,5734.4
2023-05-05T05:02:40.468Z,6282.24
2023-05-05T05:03:40.521Z,6753.28
2023-05-05T05:04:40.599Z,5611.52
2023-05-05T05:05:40.751Z,5729.28
2023-05-05T05:06:40.893Z,7572.48
2023-05-05T05:07:41.057Z,8806.399
2023-05-05T05:08:41.213Z,9144.319
2023-05-05T05:09:41.356Z,9753.6
2023-05-05T05:10:41.511Z,9431.04
2023-05-05T05:11:41.656Z,9047.04
2023-05-05T05:12:41.829Z,7516.16
2023-05-05T05:13:41.981Z,7941.12
2023-05-05T05:14:42.113Z,7490.56
2023-05-05T05:15:42.284Z,7598.08
2023-05-05T05:16:42.398Z,7864.32
2023-05-05T05:17:42.568Z,7224.32
2023-05-05T05:18:42.631Z,6712.32
2023-05-05T05:19:43.080Z,7731.2
2023-05-05T05:20:42.931Z,8821.76
2023-05-05T05:21:43.558Z,9451.52
2023-05-05T05:23:43.772Z,10731.52
2023-05-05T05:24:43.427Z,11581.439
2023-05-05T05:25:43.615Z,12093.439
2023-05-05T05:26:43.759Z,11929.6
2023-05-05T05:27:44.129Z,11284.479
2023-05-05T05:28:44.039Z,10987.52
2023-05-05T05:29:44.142Z,11632.64
2023-05-05T05:30:44.292Z,11950.08
2023-05-05T05:31:44.489Z,11745.279
2023-05-05T05:32:44.638Z,11601.92
2023-05-05T05:33:44.757Z,12738.56
2023-05-05T05:34:44.906Z,12625.92
2023-05-05T05:35:45.060Z,13178.88
2023-05-05T05:36:45.227Z,14499.84
2023-05-05T05:37:45.361Z,12769.279
2023-05-05T05:38:45.505Z,10224.64
2023-05-05T05:39:45.608Z,11243.52
2023-05-05T05:40:45.804Z,10209.279
2023-05-05T05:41:45.915Z,10844.16
2023-05-05T05:42:46.058Z,9594.88
2023-05-05T05:43:46.215Z,15892.479
2023-05-05T05:44:46.376Z,16486.4
2023-05-05T05:45:46.565Z,16312.319
2023-05-05T05:46:46.617Z,10388.479
2023-05-05T05:47:46.779Z,18247.68
2023-05-05T05:48:46.920Z,18821.12
2023-05-05T05:49:47.009Z,19118.08
2023-05-05T05:50:47.122Z,19394.56
2023-05-05T05:51:47.275Z,19404.8
2023-05-05T05:52:47.420Z,18483.2
2023-05-05T05:53:47.584Z,19712
2023-05-05T05:54:47.727Z,20582.4
2023-05-05T05:55:47.921Z,20940.8
2023-05-05T05:56:48.037Z,21401.6
2023-05-05T05:57:48.146Z,21749.76
2023-05-05T05:58:48.310Z,22077.44
2023-05-05T05:59:48.398Z,22384.64
2023-05-05T06:00:48.549Z,22835.2
2023-05-05T06:01:48.713Z,23162.88
2023-05-05T06:02:48.955Z,23347.2
2023-05-05T06:03:49.034Z,24166.4
2023-05-05T06:04:49.138Z,24432.64
2023-05-05T06:05:49.268Z,24883.2
2023-05-05T06:06:49.402Z,25292.8
2023-05-05T06:07:49.547Z,25784.32
2023-05-05T06:08:49.647Z,26132.48
2023-05-05T06:09:49.798Z,26583.04
2023-05-05T06:10:49.900Z,27054.08
2023-05-05T06:11:50.047Z,27484.16
2023-05-05T06:12:50.241Z,27934.72
2023-05-05T06:13:50.287Z,28078.08
2023-05-05T06:14:50.457Z,28733.44
2023-05-05T06:15:50.664Z,29347.84
2023-05-05T06:16:50.768Z,29614.08
2023-05-05T06:17:50.880Z,29655.04
2023-05-05T06:18:51.047Z,30269.44
2023-05-05T06:19:52.434Z,31047.68
2023-05-05T06:20:51.324Z,31375.36
2023-05-05T06:21:51.470Z,31764.48
2023-05-05T06:22:51.619Z,32358.4
2023-05-05T06:23:51.783Z,33013.76
2023-05-05T06:24:51.944Z,33566.72
2023-05-05T06:25:52.075Z,34017.28
2023-05-05T06:26:52.237Z,34693.12
2023-05-05T06:27:52.396Z,34856.96
2023-05-05T06:28:52.558Z,35409.92
2023-05-05T06:29:52.685Z,36003.84
2023-05-05T06:30:52.869Z,36311.04
2023-05-05T06:31:53.062Z,37744.64
2023-05-05T06:32:53.197Z,38543.36
2023-05-05T06:33:53.289Z,39034.88
2023-05-05T06:34:53.452Z,39505.92
2023-05-05T06:35:53.590Z,40161.28
2023-05-05T06:36:53.818Z,40570.88
2023-05-05T06:37:53.900Z,40837.12
2023-05-05T06:38:54.068Z,41328.64
2023-05-05T06:39:54.208Z,41287.68
2023-05-05T06:40:54.353Z,42024.96
2023-05-05T06:41:54.460Z,42885.12
2023-05-05T06:42:54.614Z,43991.04
2023-05-05T06:43:54.747Z,44523.52
2023-05-05T06:44:54.915Z,45383.68
2023-05-05T06:45:55.068Z,46161.92
2023-05-05T06:47:55.322Z,47964.16
2023-05-05T06:48:55.472Z,48701.44
2023-05-05T06:49:55.621Z,49274.88
2023-05-05T06:50:55.788Z,49971.2
2023-05-05T06:51:55.934Z,50585.6
2023-05-05T06:52:56.095Z,51404.8
2023-05-05T06:53:56.174Z,51814.4
2023-05-05T06:54:56.330Z,51896.32
2023-05-05T06:55:56.478Z,51937.28
2023-05-05T06:56:58.837Z,52183.04
2023-05-05T06:57:56.790Z,49807.36
2023-05-05T06:58:56.948Z,53370.88
2023-05-05T06:59:57.097Z,54272
2023-05-05T07:00:57.304Z,49233.92
2023-05-05T07:01:57.333Z,54763.52
2023-05-05T07:02:57.514Z,55500.8
2023-05-05T07:03:57.624Z,57548.8
2023-05-05T07:04:57.938Z,58859.52
2023-05-05T07:05:57.892Z,58736.64
2023-05-05T07:06:58.007Z,59842.56
2023-05-05T07:07:58.178Z,60334.08
2023-05-05T07:08:58.308Z,61194.24
2023-05-05T07:09:58.458Z,62627.84
2023-05-05T07:10:58.647Z,63447.04
2023-05-05T07:11:58.755Z,64389.12
2023-05-05T07:12:58.876Z,65126.4
2023-05-05T07:13:59.029Z,65740.8
2023-05-05T07:14:59.116Z,66355.2
2023-05-05T07:15:59.225Z,67092.48
2023-05-05T07:16:59.339Z,67584
2023-05-05T07:17:59.444Z,68239.36
2023-05-05T07:18:59.553Z,68853.76
2023-05-05T07:19:59.669Z,69550.08
2023-05-05T07:20:59.815Z,70041.6
2023-05-05T07:21:59.974Z,70656
2023-05-05T07:23:00.142Z,71475.2
2023-05-05T07:24:00.265Z,72253.44
2023-05-05T07:25:00.442Z,72785.92
2023-05-05T07:26:00.555Z,73441.28
2023-05-05T07:27:00.699Z,74014.72
2023-05-05T07:28:00.822Z,74915.84
2023-05-05T07:29:00.972Z,75325.44
2023-05-05T07:30:01.087Z,75939.84
2023-05-05T07:31:01.227Z,76595.2
2023-05-05T07:32:01.477Z,77250.56
2023-05-05T07:33:01.571Z,77619.2
2023-05-05T07:34:01.703Z,77905.92
2023-05-05T07:35:01.800Z,78192.64
2023-05-05T07:36:01.950Z,78315.52
2023-05-05T07:37:02.097Z,78151.68
2023-05-05T07:38:02.272Z,78888.96
2023-05-05T07:39:02.415Z,79462.4
2023-05-05T07:40:02.578Z,80199.68
2023-05-05T07:41:02.734Z,80732.16
2023-05-05T07:42:02.853Z,81756.16
2023-05-05T07:43:03.004Z,82452.48
2023-05-05T07:44:03.152Z,82165.76
2023-05-05T07:45:03.314Z,82780.16
2023-05-05T07:46:03.501Z,83558.4
2023-05-05T07:47:03.609Z,83681.28
2023-05-05T07:48:03.825Z,84787.2
2023-05-05T07:49:03.925Z,84869.12
2023-05-05T07:50:04.033Z,84623.36
2023-05-05T07:51:04.180Z,85114.88
2023-05-05T07:52:04.340Z,84787.2
2023-05-05T07:53:13.465Z,85524.48
2023-05-05T07:54:04.634Z,85524.48
2023-05-05T07:55:04.904Z,85196.8
2023-05-05T07:56:04.921Z,85606.4
2023-05-05T07:57:05.098Z,86179.84
2023-05-05T07:58:05.220Z,86835.2
2023-05-05T07:59:05.300Z,87408.64
2023-05-05T08:00:05.505Z,87900.16
2023-05-05T08:01:05.543Z,87982.08
2023-05-05T08:02:05.830Z,88883.2
2023-05-05T08:03:07.156Z,90030.08
2023-05-05T08:04:05.941Z,92323.84
2023-05-05T08:05:06.188Z,62873.6
2023-05-05T08:06:06.195Z,56852.48
2023-05-05T08:07:06.366Z,62750.72
2023-05-05T08:08:06.724Z,48865.28
2023-05-05T08:09:06.856Z,47267.84
2023-05-05T08:10:06.953Z,60129.28
2023-05-05T08:11:07.104Z,58654.72
2023-05-05T08:12:07.257Z,63201.28
2023-05-05T08:13:07.423Z,62586.88
2023-05-05T08:14:07.511Z,52633.6
2023-05-05T08:15:08.097Z,68935.68
2023-05-05T08:16:07.889Z,38871.04
2023-05-05T08:17:07.964Z,59064.32
2023-05-05T08:18:08.146Z,97402.88
2023-05-05T08:19:17.796Z,95764.48
2023-05-05T08:20:08.449Z,95109.12
2023-05-05T08:21:08.580Z,93962.23
2023-05-05T08:22:08.744Z,93061.12
2023-05-05T08:23:08.874Z,93880.32
2023-05-05T08:24:09.048Z,94126.08
2023-05-05T08:25:09.273Z,93798.4
2023-05-05T08:26:09.351Z,92078.08
2023-05-05T08:27:09.488Z,91668.48
2023-05-05T08:28:09.635Z,91914.23
2023-05-05T08:29:09.796Z,92323.84
2023-05-05T08:30:09.974Z,95191.04
2023-05-05T08:31:10.084Z,96010.23
2023-05-05T08:32:10.197Z,95682.55
2023-05-05T08:33:10.419Z,96583.68
2023-05-05T08:34:10.502Z,97648.64
2023-05-05T08:35:11.287Z,97484.8
2023-05-05T08:36:10.800Z,97484.8
2023-05-05T08:37:11.495Z,96747.52
2023-05-05T08:39:11.195Z,97812.48
2023-05-05T08:40:11.402Z,93388.8
2023-05-05T08:41:11.461Z,95928.32
2023-05-05T08:42:11.803Z,90931.2
2023-05-05T08:43:11.766Z,91176.96
2023-05-05T08:44:11.916Z,97566.72
2023-05-05T08:45:12.280Z,95436.8
2023-05-05T08:46:12.235Z,96092.16
2023-05-05T08:47:12.314Z,95928.32
2023-05-05T08:48:12.499Z,96583.68
2023-05-05T08:49:12.626Z,95109.12
2023-05-05T08:50:12.775Z,95109.12
2023-05-05T08:51:12.936Z,95846.4
2023-05-05T08:52:13.102Z,95846.4
2023-05-05T08:53:13.225Z,95436.8
2023-05-05T08:54:13.320Z,97566.72
2023-05-05T08:55:13.480Z,98877.44
2023-05-05T08:56:13.666Z,101171.2
2023-05-05T08:57:13.791Z,101908.48
2023-05-05T08:58:13.963Z,102891.52
2023-05-05T08:59:14.088Z,93798.4
2023-05-05T09:00:14.172Z,89866.23
2023-05-05T09:01:14.359Z,91668.48
2023-05-05T09:02:14.509Z,98795.52
2023-05-05T09:03:14.740Z,94126.08
2023-05-05T09:04:14.800Z,95846.4
2023-05-05T09:05:14.960Z,97566.72
2023-05-05T09:06:15.137Z,98959.36
2023-05-05T09:07:15.261Z,88801.28
2023-05-05T09:08:15.435Z,82411.52
2023-05-05T09:09:15.557Z,91914.23
2023-05-05T09:10:15.711Z,99778.55
2023-05-05T09:11:15.838Z,98058.23
2023-05-05T09:12:15.977Z,97320.96
2023-05-05T09:13:16.191Z,99205.12
2023-05-05T09:14:16.257Z,99368.96
2023-05-05T09:15:16.404Z,100433.91
2023-05-05T09:16:16.604Z,100024.32
2023-05-05T09:17:16.673Z,98877.44
2023-05-05T09:18:16.852Z,98959.36
2023-05-05T09:19:16.935Z,99041.28
2023-05-05T09:20:17.071Z,103628.8
2023-05-05T09:21:17.227Z,98877.44
2023-05-05T09:22:17.377Z,104448
2023-05-05T09:23:17.545Z,104775.68
2023-05-05T09:24:17.680Z,102563.84
2023-05-05T09:25:17.894Z,102563.84
2023-05-05T09:26:17.940Z,100679.68
2023-05-05T09:27:18.119Z,100597.76
2023-05-05T09:28:18.271Z,100925.44
2023-05-05T09:29:18.385Z,101580.8
2023-05-05T09:30:18.553Z,102154.23
2023-05-05T09:31:18.713Z,102563.84
2023-05-05T09:32:18.877Z,104120.32
2023-05-05T09:33:18.998Z,99041.28
2023-05-05T09:34:19.134Z,91176.96
2023-05-05T09:35:19.289Z,92241.91
2023-05-05T09:36:19.426Z,100597.76
2023-05-05T09:37:19.543Z,101007.36
2023-05-05T09:38:19.697Z,99368.96
2023-05-05T09:39:19.805Z,100270.08
2023-05-05T09:40:20.154Z,100352
2023-05-05T09:41:20.059Z,103792.64
2023-05-05T09:42:20.195Z,101335.04
2023-05-05T09:43:20.546Z,100024.32
2023-05-05T09:44:20.530Z,99041.28
2023-05-05T09:45:20.670Z,94863.36
2023-05-05T09:46:20.852Z,87572.48
2023-05-05T09:47:29.210Z,89866.23
2023-05-05T09:48:21.173Z,92487.68
2023-05-05T09:49:21.231Z,91586.55
2023-05-05T09:50:21.415Z,95846.4
2023-05-05T09:51:21.574Z,98304
2023-05-05T09:52:21.686Z,97075.2
2023-05-05T09:53:21.857Z,97566.72
2023-05-05T09:54:21.975Z,98304
2023-05-05T09:55:22.116Z,97402.88
2023-05-05T09:56:22.280Z,91668.48
2023-05-05T09:57:22.434Z,91340.8
2023-05-05T09:58:22.556Z,98877.44
2023-05-05T09:59:22.736Z,98795.52
2023-05-05T10:00:22.860Z,101089.28
2023-05-05T10:01:22.971Z,100925.44
2023-05-05T10:02:23.089Z,99532.8
2023-05-05T10:03:23.243Z,96337.91
2023-05-05T10:04:23.409Z,91996.16
2023-05-05T10:05:23.737Z,97239.04
2023-05-05T10:06:23.651Z,99450.88
2023-05-05T10:07:23.826Z,99614.72
2023-05-05T10:08:23.953Z,97157.12
2023-05-05T10:09:24.116Z,94044.16
2023-05-05T10:10:24.247Z,98304
2023-05-05T10:11:24.401Z,92405.76
2023-05-05T10:12:24.560Z,92405.76
2023-05-05T10:13:24.741Z,99696.64
2023-05-05T10:14:24.867Z,98959.36
2023-05-05T10:15:25.010Z,101089.28
2023-05-05T10:16:25.931Z,97075.2
2023-05-05T10:17:25.315Z,95027.2
2023-05-05T10:18:25.532Z,97402.88
2023-05-05T10:19:25.567Z,96911.36
2023-05-05T10:20:25.729Z,93716.48
2023-05-05T10:21:25.862Z,95354.88
2023-05-05T10:22:26.026Z,96665.6
2023-05-05T10:23:26.189Z,96256
2023-05-05T10:24:26.336Z,98959.36
2023-05-05T10:25:26.468Z,105431.04
2023-05-05T10:26:26.599Z,104529.91
2023-05-05T10:27:26.744Z,102481.91
2023-05-05T10:28:26.885Z,93143.04
2023-05-05T10:29:27.007Z,96829.44
2023-05-05T10:30:27.146Z,93716.48
2023-05-05T10:31:27.339Z,93143.04
2023-05-05T10:32:43.057Z,82042.88
2023-05-05T10:33:31.895Z,85196.8
2023-05-05T10:34:27.672Z,96419.84
2023-05-05T10:35:27.784Z,102072.32
2023-05-05T10:36:27.920Z,103956.48
2023-05-05T10:37:28.091Z,107069.44
2023-05-05T10:38:28.204Z,110346.23
2023-05-05T10:39:28.373Z,110673.91
2023-05-05T10:40:28.501Z,109690.88
2023-05-05T10:41:28.659Z,108462.08
2023-05-05T10:42:28.807Z,99041.28
2023-05-05T10:43:28.925Z,96829.44
2023-05-05T10:44:29.066Z,96665.6
2023-05-05T10:45:29.364Z,95272.96
2023-05-05T10:46:29.395Z,102891.52
2023-05-05T10:47:29.574Z,100270.08
2023-05-05T10:48:29.704Z,106577.91
2023-05-05T10:49:29.815Z,107479.04
2023-05-05T10:50:29.984Z,99532.8
2023-05-05T10:51:39.180Z,91013.12
2023-05-05T10:52:30.263Z,80199.68
2023-05-05T10:53:30.383Z,76513.28
2023-05-05T10:54:30.669Z,85606.4
2023-05-05T10:55:30.681Z,87326.72
2023-05-05T10:56:30.835Z,79790.08
2023-05-05T10:57:30.983Z,88965.12
2023-05-05T10:58:31.137Z,96829.44
2023-05-05T10:59:31.301Z,105103.36
2023-05-05T11:00:31.441Z,95191.04
2023-05-05T11:01:31.694Z,88637.44
2023-05-05T11:02:31.785Z,97566.72
2023-05-05T11:03:31.961Z,97812.48
2023-05-05T11:04:32.056Z,84213.76
2023-05-05T11:05:32.194Z,81756.16
2023-05-05T11:06:32.365Z,69181.44
2023-05-05T11:07:32.514Z,85442.55
2023-05-05T11:08:32.655Z,89620.48
2023-05-05T11:09:32.743Z,91176.96
2023-05-05T11:10:32.916Z,94371.84
2023-05-05T11:11:33.047Z,90603.52
2023-05-05T11:12:33.260Z,90112
2023-05-05T11:13:33.305Z,94044.16
2023-05-05T11:14:33.423Z,100761.6
2023-05-05T11:15:33.616Z,102400
2023-05-05T11:16:33.724Z,106168.32
2023-05-05T11:17:33.842Z,110018.55
2023-05-05T11:18:34.016Z,110592
2023-05-05T11:19:34.170Z,109035.52
2023-05-05T11:20:34.323Z,107970.55
2023-05-05T11:21:34.488Z,99287.04
2023-05-05T11:22:34.634Z,105676.8
2023-05-05T11:23:34.728Z,107069.44
2023-05-05T11:24:34.876Z,100106.23
2023-05-05T11:25:35.158Z,97484.8
2023-05-05T11:26:35.191Z,90030.08
2023-05-05T11:27:35.339Z,86917.12
2023-05-05T11:28:35.438Z,96256
2023-05-05T11:29:35.621Z,96337.91
2023-05-05T11:30:35.687Z,93798.4
2023-05-05T11:31:35.902Z,95027.2
2023-05-05T11:32:36.052Z,95682.55
2023-05-05T11:33:36.137Z,87244.8
2023-05-05T11:34:36.323Z,95191.04
2023-05-05T11:35:36.455Z,100270.08
2023-05-05T11:36:36.597Z,101990.4
2023-05-05T11:37:36.772Z,99041.28
2023-05-05T11:38:36.914Z,96829.44
2023-05-05T11:39:37.056Z,100106.23
2023-05-05T11:40:37.156Z,100433.91
2023-05-05T11:41:37.306Z,100270.08
2023-05-05T11:42:37.457Z,103383.04
2023-05-05T11:43:37.608Z,103301.12
2023-05-05T11:44:37.769Z,99860.48
2023-05-05T11:45:37.920Z,103301.12
2023-05-05T11:46:38.079Z,103055.36
2023-05-05T11:47:38.257Z,99860.48
2023-05-05T11:48:38.378Z,97894.4
2023-05-05T11:49:38.571Z,98222.08
2023-05-05T11:50:38.695Z,96993.28
2023-05-05T11:51:38.843Z,95846.4
2023-05-05T11:52:38.937Z,90603.52
2023-05-05T11:53:39.082Z,89047.04
2023-05-05T11:54:39.176Z,86097.92
2023-05-05T11:55:39.335Z,80240.64
2023-05-05T11:56:39.517Z,83066.88
2023-05-05T11:57:39.658Z,89210.88
2023-05-05T11:58:39.788Z,94945.28
2023-05-05T11:59:39.925Z,94453.76
2023-05-05T12:00:40.083Z,94945.28
2023-05-05T12:01:40.237Z,92979.2
2023-05-05T12:02:40.550Z,87818.23
2023-05-05T12:03:40.631Z,88227.84
2023-05-05T12:04:40.665Z,88145.92
2023-05-05T12:05:40.796Z,92487.68
2023-05-05T12:06:40.953Z,90767.36
2023-05-05T12:07:41.119Z,86753.28
2023-05-05T12:08:41.291Z,88309.76
2023-05-05T12:09:41.362Z,89620.48
2023-05-05T12:10:41.501Z,90439.68
2023-05-05T12:11:41.669Z,90603.52
2023-05-05T12:12:41.776Z,83599.36
2023-05-05T12:13:41.918Z,85852.16
2023-05-05T12:14:42.055Z,79994.88
2023-05-05T12:15:42.212Z,83189.76
2023-05-05T12:16:42.406Z,86917.12
2023-05-05T12:17:42.707Z,84541.44
2023-05-05T12:18:42.656Z,79175.68
2023-05-05T12:19:42.700Z,82370.56
2023-05-05T12:20:42.815Z,96337.91
2023-05-05T12:21:42.913Z,92241.91
2023-05-05T12:22:43.058Z,91504.64